ISR049 LLBG-LLER
Flight info
| Callsign | ISR049 |
|---|---|
| Flight time | 0h 34m |
| Altitude | 24000 |
| Route | TOMAL J10 NURIT |
| Aircraft | A320/M-SDE2FGIJ1LORVWY/SB1 |
Departure
| Time | 2026-04-26 17:19 |
|---|---|
| Airport | Ben Gurion International Airport (LLBG) |
Arrival
| Time | 2026-04-26 17:54 |
|---|---|
| Airport | Ramon International Airport (LLER) |
| Time | Latitude | Longitude | Altitude | Speed | Heading |
|---|---|---|---|---|---|
| 2026-04-26 17:01 | 32.00058 | 34.87760 | 120 ft | 0 kts | 121° |
| 2026-04-26 17:06 | 32.00058 | 34.87759 | 120 ft | 0 kts | 121° |
| 2026-04-26 17:10 | 32.00060 | 34.87755 | 117 ft | 3 kts | 121° |
| 2026-04-26 17:10 | 32.00074 | 34.87728 | 115 ft | 4 kts | 122° |
| 2026-04-26 17:10 | 32.00088 | 34.87701 | 117 ft | 4 kts | 117° |
| 2026-04-26 17:10 | 32.00097 | 34.87673 | 118 ft | 4 kts | 79° |
| 2026-04-26 17:11 | 32.00093 | 34.87662 | 116 ft | 0 kts | 32° |
| 2026-04-26 17:13 | 32.00118 | 34.87681 | 119 ft | 15 kts | 33° |
| 2026-04-26 17:14 | 32.00246 | 34.87775 | 118 ft | 24 kts | 31° |
| 2026-04-26 17:14 | 32.00511 | 34.87956 | 120 ft | 16 kts | 5° |
| 2026-04-26 17:14 | 32.00616 | 34.87941 | 119 ft | 17 kts | 31° |
| 2026-04-26 17:15 | 32.00932 | 34.88169 | 118 ft | 32 kts | 33° |
| 2026-04-26 17:15 | 32.01123 | 34.88306 | 119 ft | 33 kts | 31° |
| 2026-04-26 17:15 | 32.01311 | 34.88460 | 119 ft | 33 kts | 43° |
| 2026-04-26 17:16 | 32.01450 | 34.88680 | 120 ft | 32 kts | 63° |
| 2026-04-26 17:16 | 32.01510 | 34.88934 | 120 ft | 31 kts | 79° |
| 2026-04-26 17:16 | 32.01548 | 34.89134 | 116 ft | 19 kts | 56° |
| 2026-04-26 17:16 | 32.01662 | 34.89148 | 119 ft | 14 kts | 349° |
| 2026-04-26 17:17 | 32.01744 | 34.89121 | 116 ft | 8 kts | 317° |
| 2026-04-26 17:17 | 32.01746 | 34.89091 | 119 ft | 0 kts | 261° |
| 2026-04-26 17:18 | 32.01746 | 34.89089 | 119 ft | 4 kts | 261° |
| 2026-04-26 17:18 | 32.01703 | 34.88809 | 119 ft | 68 kts | 259° |
| 2026-04-26 17:19 | 32.01414 | 34.86906 | 128 ft | 161 kts | 260° |
| 2026-04-26 17:19 | 32.01230 | 34.85617 | 674 ft | 158 kts | 261° |
| 2026-04-26 17:19 | 32.01037 | 34.84336 | 1242 ft | 160 kts | 258° |
| 2026-04-26 17:20 | 32.00361 | 34.83308 | 1760 ft | 167 kts | 208° |
| 2026-04-26 17:20 | 31.99996 | 34.83132 | 1922 ft | 169 kts | 195° |
| 2026-04-26 17:20 | 31.98154 | 34.83737 | 2733 ft | 179 kts | 133° |
| 2026-04-26 17:20 | 31.97605 | 34.85057 | 3211 ft | 183 kts | 109° |
| 2026-04-26 17:21 | 31.97199 | 34.86551 | 3450 ft | 202 kts | 109° |
| 2026-04-26 17:21 | 31.96747 | 34.88195 | 3764 ft | 216 kts | 110° |
| 2026-04-26 17:21 | 31.96277 | 34.89895 | 4284 ft | 220 kts | 110° |
| 2026-04-26 17:21 | 31.95800 | 34.91610 | 4847 ft | 222 kts | 111° |
| 2026-04-26 17:22 | 31.95331 | 34.93292 | 5409 ft | 223 kts | 111° |
| 2026-04-26 17:22 | 31.94851 | 34.95007 | 6001 ft | 224 kts | 112° |
| 2026-04-26 17:22 | 31.94278 | 34.96750 | 6443 ft | 232 kts | 120° |
| 2026-04-26 17:22 | 31.93527 | 34.98494 | 6689 ft | 251 kts | 122° |
| 2026-04-26 17:23 | 31.92666 | 35.00376 | 6961 ft | 272 kts | 124° |
| 2026-04-26 17:23 | 31.91727 | 35.02396 | 7350 ft | 291 kts | 124° |
| 2026-04-26 17:23 | 31.90715 | 35.04573 | 7610 ft | 315 kts | 124° |
| 2026-04-26 17:23 | 31.89639 | 35.06899 | 8019 ft | 330 kts | 123° |
| 2026-04-26 17:24 | 31.88529 | 35.09316 | 8394 ft | 346 kts | 123° |
| 2026-04-26 17:24 | 31.87283 | 35.11830 | 8642 ft | 361 kts | 131° |
| 2026-04-26 17:24 | 31.85484 | 35.13860 | 9260 ft | 356 kts | 150° |
| 2026-04-26 17:24 | 31.83321 | 35.15133 | 10005 ft | 352 kts | 161° |
| 2026-04-26 17:25 | 31.81060 | 35.16244 | 10694 ft | 353 kts | 161° |
| 2026-04-26 17:25 | 31.78782 | 35.17340 | 11330 ft | 355 kts | 161° |
| 2026-04-26 17:25 | 31.76483 | 35.18437 | 11943 ft | 358 kts | 161° |
| 2026-04-26 17:25 | 31.74160 | 35.19542 | 12532 ft | 362 kts | 161° |
| 2026-04-26 17:26 | 31.71818 | 35.20659 | 13139 ft | 365 kts | 161° |
| 2026-04-26 17:26 | 31.69454 | 35.21792 | 13715 ft | 369 kts | 161° |
| 2026-04-26 17:26 | 31.67065 | 35.22941 | 14236 ft | 373 kts | 161° |
| 2026-04-26 17:26 | 31.64654 | 35.24104 | 14733 ft | 377 kts | 161° |
| 2026-04-26 17:27 | 31.62178 | 35.25298 | 14859 ft | 392 kts | 162° |
| 2026-04-26 17:27 | 31.59617 | 35.26524 | 15122 ft | 402 kts | 162° |
| 2026-04-26 17:27 | 31.57010 | 35.27771 | 15514 ft | 407 kts | 162° |
| 2026-04-26 17:27 | 31.54414 | 35.29012 | 15968 ft | 410 kts | 162° |
| 2026-04-26 17:28 | 31.51760 | 35.30280 | 16426 ft | 413 kts | 162° |
| 2026-04-26 17:28 | 31.49089 | 35.31557 | 16858 ft | 417 kts | 162° |
| 2026-04-26 17:28 | 31.46399 | 35.32843 | 16970 ft | 418 kts | 162° |
| 2026-04-26 17:28 | 31.43703 | 35.34134 | 17007 ft | 419 kts | 162° |
| 2026-04-26 17:29 | 31.41002 | 35.35429 | 16997 ft | 420 kts | 162° |
| 2026-04-26 17:29 | 31.40126 | 35.35848 | 16999 ft | 420 kts | 162° |
| 2026-04-26 17:29 | 31.35579 | 35.37950 | 16997 ft | 417 kts | 167° |
| 2026-04-26 17:29 | 31.32805 | 35.38675 | 16980 ft | 412 kts | 176° |
| 2026-04-26 17:30 | 31.29956 | 35.38826 | 16993 ft | 408 kts | 186° |
| 2026-04-26 17:30 | 31.27136 | 35.38547 | 16996 ft | 407 kts | 188° |
| 2026-04-26 17:30 | 31.24314 | 35.38243 | 16995 ft | 407 kts | 188° |
| 2026-04-26 17:30 | 31.21493 | 35.37947 | 16995 ft | 407 kts | 188° |
| 2026-04-26 17:31 | 31.18672 | 35.37653 | 16992 ft | 407 kts | 188° |
| 2026-04-26 17:31 | 31.15849 | 35.37360 | 16992 ft | 407 kts | 188° |
| 2026-04-26 17:31 | 31.13027 | 35.37067 | 16990 ft | 407 kts | 188° |
| 2026-04-26 17:31 | 31.10209 | 35.36776 | 16986 ft | 407 kts | 188° |
| 2026-04-26 17:32 | 31.07426 | 35.36490 | 16983 ft | 407 kts | 188° |
| 2026-04-26 17:32 | 31.04611 | 35.36198 | 16983 ft | 407 kts | 188° |
| 2026-04-26 17:32 | 31.01803 | 35.35907 | 16981 ft | 406 kts | 188° |
| 2026-04-26 17:32 | 30.98975 | 35.35616 | 16979 ft | 406 kts | 188° |
| 2026-04-26 17:33 | 30.96163 | 35.35307 | 16982 ft | 405 kts | 191° |
| 2026-04-26 17:33 | 30.93428 | 35.34601 | 16971 ft | 401 kts | 200° |
| 2026-04-26 17:33 | 30.90839 | 35.33409 | 16968 ft | 400 kts | 205° |
| 2026-04-26 17:34 | 30.85759 | 35.30884 | 16948 ft | 400 kts | 205° |
| 2026-04-26 17:34 | 30.83199 | 35.29617 | 16951 ft | 400 kts | 205° |
| 2026-04-26 17:34 | 30.80637 | 35.28350 | 16953 ft | 400 kts | 205° |
| 2026-04-26 17:34 | 30.78071 | 35.27088 | 16954 ft | 400 kts | 205° |
| 2026-04-26 17:35 | 30.75502 | 35.25828 | 16766 ft | 401 kts | 205° |
| 2026-04-26 17:35 | 30.72939 | 35.24572 | 16535 ft | 399 kts | 205° |
| 2026-04-26 17:35 | 30.70385 | 35.23321 | 16265 ft | 397 kts | 205° |
| 2026-04-26 17:35 | 30.67847 | 35.22078 | 15879 ft | 395 kts | 205° |
| 2026-04-26 17:36 | 30.65320 | 35.20838 | 15516 ft | 393 kts | 205° |
| 2026-04-26 17:36 | 30.62804 | 35.19602 | 15152 ft | 392 kts | 205° |
| 2026-04-26 17:36 | 30.60331 | 35.18388 | 14795 ft | 391 kts | 205° |
| 2026-04-26 17:36 | 30.57830 | 35.17161 | 14437 ft | 389 kts | 205° |
| 2026-04-26 17:37 | 30.55273 | 35.16139 | 14077 ft | 390 kts | 196° |
| 2026-04-26 17:37 | 30.52608 | 35.15564 | 13725 ft | 390 kts | 192° |
| 2026-04-26 17:37 | 30.49943 | 35.15054 | 13331 ft | 385 kts | 192° |
| 2026-04-26 17:38 | 30.44805 | 35.14075 | 12540 ft | 364 kts | 192° |
| 2026-04-26 17:38 | 30.42345 | 35.13603 | 12161 ft | 353 kts | 192° |
| 2026-04-26 17:38 | 30.39985 | 35.13148 | 11792 ft | 344 kts | 192° |
| 2026-04-26 17:38 | 30.37577 | 35.12679 | 11421 ft | 365 kts | 192° |
| 2026-04-26 17:39 | 30.35029 | 35.12183 | 11057 ft | 375 kts | 192° |
| 2026-04-26 17:39 | 30.32457 | 35.11689 | 10673 ft | 375 kts | 192° |
| 2026-04-26 17:39 | 30.29885 | 35.11202 | 10148 ft | 371 kts | 191° |
| 2026-04-26 17:39 | 30.27333 | 35.10723 | 9982 ft | 373 kts | 191° |
| 2026-04-26 17:40 | 30.24771 | 35.10243 | 9545 ft | 372 kts | 191° |
| 2026-04-26 17:40 | 30.23946 | 35.10089 | 9346 ft | 370 kts | 191° |
| 2026-04-26 17:40 | 30.19697 | 35.09271 | 8496 ft | 369 kts | 192° |
| 2026-04-26 17:40 | 30.17199 | 35.08755 | 8000 ft | 370 kts | 192° |
| 2026-04-26 17:41 | 30.14669 | 35.08220 | 7494 ft | 369 kts | 192° |
| 2026-04-26 17:41 | 30.12149 | 35.07685 | 6988 ft | 368 kts | 192° |
| 2026-04-26 17:41 | 30.09633 | 35.07156 | 6494 ft | 367 kts | 192° |
| 2026-04-26 17:41 | 30.07124 | 35.06632 | 6344 ft | 369 kts | 192° |
| 2026-04-26 17:42 | 30.04588 | 35.06116 | 6302 ft | 370 kts | 192° |
| 2026-04-26 17:42 | 30.02037 | 35.05614 | 6284 ft | 374 kts | 191° |
| 2026-04-26 17:42 | 29.99466 | 35.05119 | 6248 ft | 374 kts | 191° |
| 2026-04-26 17:42 | 29.96900 | 35.04625 | 6224 ft | 374 kts | 190° |
| 2026-04-26 17:43 | 29.94327 | 35.04127 | 6190 ft | 375 kts | 192° |
| 2026-04-26 17:43 | 29.91758 | 35.03627 | 6163 ft | 375 kts | 192° |
| 2026-04-26 17:43 | 29.89218 | 35.03132 | 6139 ft | 375 kts | 191° |
| 2026-04-26 17:43 | 29.86648 | 35.02637 | 6067 ft | 373 kts | 191° |
| 2026-04-26 17:44 | 29.84117 | 35.02153 | 5922 ft | 366 kts | 191° |
| 2026-04-26 17:44 | 29.81699 | 35.01516 | 5924 ft | 357 kts | 202° |
| 2026-04-26 17:44 | 29.79461 | 35.00454 | 5925 ft | 344 kts | 204° |
| 2026-04-26 17:44 | 29.77267 | 34.99369 | 5924 ft | 342 kts | 205° |
| 2026-04-26 17:45 | 29.75145 | 34.98304 | 5928 ft | 323 kts | 205° |
| 2026-04-26 17:45 | 29.73806 | 34.97629 | 5929 ft | 312 kts | 205° |
| 2026-04-26 17:45 | 29.71240 | 34.96337 | 5913 ft | 290 kts | 204° |
| 2026-04-26 17:45 | 29.69450 | 34.95442 | 5802 ft | 279 kts | 205° |
| 2026-04-26 17:46 | 29.67701 | 34.94571 | 5677 ft | 269 kts | 205° |
| 2026-04-26 17:46 | 29.66017 | 34.93734 | 5578 ft | 259 kts | 205° |
| 2026-04-26 17:46 | 29.64395 | 34.92928 | 5438 ft | 250 kts | 206° |
| 2026-04-26 17:46 | 29.62810 | 34.92141 | 5097 ft | 249 kts | 206° |
| 2026-04-26 17:47 | 29.61210 | 34.91346 | 4720 ft | 251 kts | 206° |
| 2026-04-26 17:47 | 29.60689 | 34.91087 | 4626 ft | 250 kts | 206° |
| 2026-04-26 17:47 | 29.58519 | 34.90045 | 4115 ft | 253 kts | 200° |
| 2026-04-26 17:47 | 29.56793 | 34.89820 | 3975 ft | 249 kts | 177° |
| 2026-04-26 17:48 | 29.54715 | 34.90736 | 3778 ft | 242 kts | 142° |
| 2026-04-26 17:48 | 29.53670 | 34.92186 | 3631 ft | 233 kts | 115° |
| 2026-04-26 17:48 | 29.53344 | 34.93927 | 3586 ft | 216 kts | 79° |
| 2026-04-26 17:48 | 29.53837 | 34.95434 | 3528 ft | 194 kts | 47° |
| 2026-04-26 17:49 | 29.54459 | 34.96122 | 3428 ft | 184 kts | 28° |
| 2026-04-26 17:49 | 29.55597 | 34.96634 | 3262 ft | 172 kts | 8° |
| 2026-04-26 17:49 | 29.56753 | 34.96953 | 3050 ft | 169 kts | 8° |
| 2026-04-26 17:49 | 29.57883 | 34.97266 | 2837 ft | 166 kts | 8° |
| 2026-04-26 17:50 | 29.59347 | 34.97673 | 2571 ft | 162 kts | 8° |
| 2026-04-26 17:50 | 29.60438 | 34.97977 | 2418 ft | 160 kts | 11° |
| 2026-04-26 17:50 | 29.61158 | 34.98178 | 2285 ft | 155 kts | 11° |
| 2026-04-26 17:50 | 29.62180 | 34.98463 | 2107 ft | 147 kts | 11° |
| 2026-04-26 17:51 | 29.63143 | 34.98732 | 1897 ft | 141 kts | 8° |
| 2026-04-26 17:51 | 29.64101 | 34.98999 | 1697 ft | 144 kts | 11° |
| 2026-04-26 17:51 | 29.65078 | 34.99272 | 1448 ft | 145 kts | 7° |
| 2026-04-26 17:51 | 29.66071 | 34.99599 | 1295 ft | 149 kts | 13° |
| 2026-04-26 17:52 | 29.67071 | 34.99840 | 1064 ft | 147 kts | 9° |
| 2026-04-26 17:52 | 29.68047 | 35.00114 | 919 ft | 143 kts | 10° |
| 2026-04-26 17:52 | 29.68998 | 35.00377 | 738 ft | 142 kts | 13° |
| 2026-04-26 17:52 | 29.69921 | 35.00628 | 586 ft | 133 kts | 14° |
| 2026-04-26 17:53 | 29.70806 | 35.00878 | 425 ft | 131 kts | 15° |
| 2026-04-26 17:53 | 29.71686 | 35.01127 | 299 ft | 119 kts | 12° |
| 2026-04-26 17:53 | 29.72318 | 35.01301 | 298 ft | 70 kts | 13° |
| 2026-04-26 17:54 | 29.72966 | 35.01482 | 298 ft | 38 kts | 13° |
| 2026-04-26 17:54 | 29.73176 | 35.01513 | 299 ft | 30 kts | 1° |
| 2026-04-26 17:54 | 29.73362 | 35.01462 | 301 ft | 21 kts | 337° |
| 2026-04-26 17:54 | 29.73358 | 35.01370 | 299 ft | 15 kts | 209° |
| 2026-04-26 17:55 | 29.73212 | 35.01327 | 298 ft | 24 kts | 193° |
| 2026-04-26 17:55 | 29.73045 | 35.01279 | 299 ft | 26 kts | 193° |
| 2026-04-26 17:55 | 29.72877 | 35.01232 | 298 ft | 17 kts | 194° |
| 2026-04-26 17:55 | 29.72849 | 35.01122 | 298 ft | 18 kts | 284° |
| 2026-04-26 17:56 | 29.72833 | 35.00984 | 298 ft | 19 kts | 207° |
| 2026-04-26 17:56 | 29.72557 | 35.00905 | 298 ft | 20 kts | 194° |
| 2026-04-26 17:57 | 29.72522 | 35.00811 | 298 ft | 9 kts | 283° |
| 2026-04-26 17:57 | 29.72527 | 35.00789 | 301 ft | 0 kts | 283° |